Cleveland, OH

11:09 AM EST on December 27, 2014 (GMT -0500)
APRSWXNET Cleveland OH US | Change Station
CLOSE
Current Station
Personal Weather Station
Location: Cleveland, OH
Elevation: 690 ft
Nearby Weather Stations

Elev 690 ft 41.47 °N, 81.65 °W | Updated 39 minutes ago

Overcast
Overcast
46 °F
Feels Like 46 °F
N
1
Wind Variable Wind from SE
Gusts 0.0 mph

Today
High -- | Low -- °F
--% Chance of Precip.
Yesterday
High -- | Low -- °F
Precip. -- in
7:52 AM 5:03 PM
Waxing Crescent, 38% visible
Pressure 30.13 in
Visibility 10.0 miles
Clouds Few 4900 ft
Mostly Cloudy 6000 ft
Overcast 10000 ft
Windchill 46 °F
Dew Point 35 °F
Humidity 64%
Rainfall -999.00 in
Snow Depth Not available.
UV 1 out of 12
Pollen .10 out of 12
Air Quality Not available.
Flu Activity Not available.
METAR KBKL 271553Z 16010KT 10SM FEW049 BKN060 OVC100 10/02 A3012 RMK AO2 SLP202 T01000017

More Conditions Fewer Conditions

Pressure 30.13 in
Visibility 10.0 miles
Clouds Few 4900 ft
Mostly Cloudy 6000 ft
Overcast 10000 ft
Windchill 46 °F
Dew Point 35 °F
Humidity 64%
Rainfall -999.00 in
Snow Depth Not available.
UV 1 out of 12
Pollen .10 out of 12
Air Quality Not available.
Flu Activity Not available.
METAR KBKL 271553Z 16010KT 10SM FEW049 BKN060 OVC100 10/02 A3012 RMK AO2 SLP202 T01000017

More Conditions Fewer Conditions

10-Day Weather Forecast

Almanac

Astronomy

Dec. 27, 2014 Rise Set
Actual Time
Civil Twilight
Nautical Twilight
Astronomical Twilight
Moon
Length of Visible Light
Length of Day
Tomorrow will be .
, % of the Moon is Illuminated

Today's Extremes

State Highs State Lows

Community

WunderPhotos

Upload Photos

1,780,942 photos uploaded!

WunderBlogs® & News

Nearby

Air Quality

  Air Quality AQ Index Pollutant
Not available.

Snow Depth

Station Depth Elevation

Earthquake Activity

City Distance Mag. Time & Date
Minimum magnitude displayed is 2.5.

Coastal Water Temperatures

Place Temperature

Nearby Weather Stations